sensor_id;sensor_type;location;lat;lon;timestamp;P1;durP1;ratioP1;P2;durP2;ratioP2
64342;SDS011;50675;53.530;-6.312;2022-08-19T00:01:38;10.38;;;2.95;;
64342;SDS011;50675;53.530;-6.312;2022-08-19T00:04:08;16.65;;;3.72;;
64342;SDS011;50675;53.530;-6.312;2022-08-19T00:06:35;10.60;;;3.15;;
64342;SDS011;50675;53.530;-6.312;2022-08-19T00:09:04;16.33;;;3.30;;
64342;SDS011;50675;53.530;-6.312;2022-08-19T00:11:32;8.15;;;2.88;;
64342;SDS011;50675;53.530;-6.312;2022-08-19T00:13:58;14.23;;;4.25;;
64342;SDS011;50675;53.530;-6.312;2022-08-19T00:16:24;11.77;;;2.50;;
64342;SDS011;50675;53.530;-6.312;2022-08-19T00:18:50;15.00;;;3.63;;
64342;SDS011;50675;53.530;-6.312;2022-08-19T00:21:16;13.30;;;2.83;;
64342;SDS011;50675;53.530;-6.312;2022-08-19T00:23:42;15.60;;;3.20;;
64342;SDS011;50675;53.530;-6.312;2022-08-19T00:26:08;9.73;;;3.33;;
64342;SDS011;50675;53.530;-6.312;2022-08-19T00:28:36;12.43;;;3.05;;
64342;SDS011;50675;53.530;-6.312;2022-08-19T00:31:03;12.23;;;3.47;;
64342;SDS011;50675;53.530;-6.312;2022-08-19T00:33:30;10.88;;;2.72;;
64342;SDS011;50675;53.530;-6.312;2022-08-19T00:36:00;15.90;;;3.92;;
64342;SDS011;50675;53.530;-6.312;2022-08-19T00:38:29;10.70;;;2.92;;
64342;SDS011;50675;53.530;-6.312;2022-08-19T00:40:55;16.58;;;3.90;;
64342;SDS011;50675;53.530;-6.312;2022-08-19T00:43:23;12.20;;;2.97;;
64342;SDS011;50675;53.530;-6.312;2022-08-19T00:45:51;10.77;;;2.53;;
64342;SDS011;50675;53.530;-6.312;2022-08-19T00:48:18;12.82;;;2.88;;
64342;SDS011;50675;53.530;-6.312;2022-08-19T00:50:45;12.23;;;3.03;;
64342;SDS011;50675;53.530;-6.312;2022-08-19T00:53:13;9.82;;;2.53;;
64342;SDS011;50675;53.530;-6.312;2022-08-19T00:55:45;9.20;;;2.83;;
64342;SDS011;50675;53.530;-6.312;2022-08-19T00:58:14;15.48;;;3.05;;
64342;SDS011;50675;53.530;-6.312;2022-08-19T01:00:42;14.82;;;3.38;;
64342;SDS011;50675;53.530;-6.312;2022-08-19T01:03:13;10.57;;;2.60;;
64342;SDS011;50675;53.530;-6.312;2022-08-19T01:05:42;11.98;;;3.05;;
64342;SDS011;50675;53.530;-6.312;2022-08-19T01:08:09;10.50;;;3.20;;
64342;SDS011;50675;53.530;-6.312;2022-08-19T01:10:40;14.27;;;3.42;;
64342;SDS011;50675;53.530;-6.312;2022-08-19T01:13:09;10.18;;;2.78;;
64342;SDS011;50675;53.530;-6.312;2022-08-19T01:15:46;11.63;;;3.60;;
64342;SDS011;50675;53.530;-6.312;2022-08-19T01:18:16;15.05;;;3.30;;
64342;SDS011;50675;53.530;-6.312;2022-08-19T01:20:43;11.82;;;3.50;;
64342;SDS011;50675;53.530;-6.312;2022-08-19T01:23:10;11.23;;;3.38;;
64342;SDS011;50675;53.530;-6.312;2022-08-19T01:25:47;17.27;;;3.50;;
64342;SDS011;50675;53.530;-6.312;2022-08-19T01:28:16;14.85;;;4.00;;
64342;SDS011;50675;53.530;-6.312;2022-08-19T01:30:51;12.98;;;3.30;;
64342;SDS011;50675;53.530;-6.312;2022-08-19T01:33:18;15.23;;;3.78;;
64342;SDS011;50675;53.530;-6.312;2022-08-19T01:35:45;14.07;;;3.42;;
64342;SDS011;50675;53.530;-6.312;2022-08-19T01:38:19;11.70;;;3.10;;
64342;SDS011;50675;53.530;-6.312;2022-08-19T01:40:48;14.70;;;3.13;;
64342;SDS011;50675;53.530;-6.312;2022-08-19T01:43:14;12.13;;;3.47;;
64342;SDS011;50675;53.530;-6.312;2022-08-19T01:45:40;12.63;;;3.00;;
64342;SDS011;50675;53.530;-6.312;2022-08-19T01:48:08;12.15;;;3.00;;
64342;SDS011;50675;53.530;-6.312;2022-08-19T01:50:34;12.32;;;3.58;;
64342;SDS011;50675;53.530;-6.312;2022-08-19T01:53:02;15.40;;;3.60;;
64342;SDS011;50675;53.530;-6.312;2022-08-19T01:55:31;11.75;;;3.38;;
64342;SDS011;50675;53.530;-6.312;2022-08-19T01:57:58;11.80;;;2.90;;
64342;SDS011;50675;53.530;-6.312;2022-08-19T02:00:28;15.43;;;3.63;;
64342;SDS011;50675;53.530;-6.312;2022-08-19T02:02:56;18.40;;;3.55;;
64342;SDS011;50675;53.530;-6.312;2022-08-19T02:05:22;13.98;;;4.13;;
64342;SDS011;50675;53.530;-6.312;2022-08-19T02:07:48;14.38;;;4.00;;
64342;SDS011;50675;53.530;-6.312;2022-08-19T02:10:17;12.70;;;3.22;;
64342;SDS011;50675;53.530;-6.312;2022-08-19T02:12:46;10.95;;;2.63;;
64342;SDS011;50675;53.530;-6.312;2022-08-19T02:15:12;11.80;;;3.85;;
64342;SDS011;50675;53.530;-6.312;2022-08-19T02:17:38;13.98;;;3.22;;
64342;SDS011;50675;53.530;-6.312;2022-08-19T02:20:04;13.13;;;3.58;;
64342;SDS011;50675;53.530;-6.312;2022-08-19T02:22:32;24.15;;;4.03;;
64342;SDS011;50675;53.530;-6.312;2022-08-19T02:24:57;15.20;;;3.80;;
64342;SDS011;50675;53.530;-6.312;2022-08-19T02:27:23;15.60;;;3.95;;
64342;SDS011;50675;53.530;-6.312;2022-08-19T02:29:49;14.35;;;3.47;;
64342;SDS011;50675;53.530;-6.312;2022-08-19T02:32:16;14.20;;;3.42;;
64342;SDS011;50675;53.530;-6.312;2022-08-19T02:34:44;12.55;;;3.67;;
64342;SDS011;50675;53.530;-6.312;2022-08-19T02:37:11;10.18;;;3.38;;
64342;SDS011;50675;53.530;-6.312;2022-08-19T02:39:57;12.27;;;3.47;;
64342;SDS011;50675;53.530;-6.312;2022-08-19T02:42:23;15.73;;;3.40;;
64342;SDS011;50675;53.530;-6.312;2022-08-19T02:44:49;19.58;;;4.10;;
64342;SDS011;50675;53.530;-6.312;2022-08-19T02:47:15;15.02;;;3.28;;
64342;SDS011;50675;53.530;-6.312;2022-08-19T02:49:41;14.48;;;3.60;;
64342;SDS011;50675;53.530;-6.312;2022-08-19T02:52:07;15.18;;;3.70;;
64342;SDS011;50675;53.530;-6.312;2022-08-19T02:54:34;21.08;;;3.80;;
64342;SDS011;50675;53.530;-6.312;2022-08-19T02:56:59;20.45;;;4.10;;
64342;SDS011;50675;53.530;-6.312;2022-08-19T02:59:25;20.77;;;4.75;;
64342;SDS011;50675;53.530;-6.312;2022-08-19T03:01:54;17.80;;;3.95;;
64342;SDS011;50675;53.530;-6.312;2022-08-19T03:04:20;13.15;;;3.88;;
64342;SDS011;50675;53.530;-6.312;2022-08-19T03:06:46;14.13;;;3.40;;
64342;SDS011;50675;53.530;-6.312;2022-08-19T03:09:12;12.50;;;3.35;;
64342;SDS011;50675;53.530;-6.312;2022-08-19T03:11:38;13.90;;;3.00;;
64342;SDS011;50675;53.530;-6.312;2022-08-19T03:14:05;12.20;;;3.40;;
64342;SDS011;50675;53.530;-6.312;2022-08-19T03:16:35;12.90;;;2.95;;
64342;SDS011;50675;53.530;-6.312;2022-08-19T03:19:09;18.60;;;3.83;;
64342;SDS011;50675;53.530;-6.312;2022-08-19T03:21:35;12.65;;;3.13;;
64342;SDS011;50675;53.530;-6.312;2022-08-19T03:24:02;14.02;;;4.03;;
64342;SDS011;50675;53.530;-6.312;2022-08-19T03:26:31;14.68;;;3.72;;
64342;SDS011;50675;53.530;-6.312;2022-08-19T03:28:56;16.83;;;3.13;;
64342;SDS011;50675;53.530;-6.312;2022-08-19T03:31:23;16.48;;;2.97;;
64342;SDS011;50675;53.530;-6.312;2022-08-19T03:33:51;14.60;;;3.50;;
64342;SDS011;50675;53.530;-6.312;2022-08-19T03:36:19;14.13;;;3.20;;
64342;SDS011;50675;53.530;-6.312;2022-08-19T03:38:51;16.75;;;3.75;;
64342;SDS011;50675;53.530;-6.312;2022-08-19T03:41:21;19.02;;;5.38;;
64342;SDS011;50675;53.530;-6.312;2022-08-19T03:43:49;11.68;;;3.67;;
64342;SDS011;50675;53.530;-6.312;2022-08-19T03:46:16;16.75;;;3.47;;
64342;SDS011;50675;53.530;-6.312;2022-08-19T03:48:46;16.00;;;3.97;;
64342;SDS011;50675;53.530;-6.312;2022-08-19T03:51:19;15.85;;;3.05;;
64342;SDS011;50675;53.530;-6.312;2022-08-19T03:53:53;14.38;;;3.10;;
64342;SDS011;50675;53.530;-6.312;2022-08-19T03:56:20;14.55;;;3.95;;
64342;SDS011;50675;53.530;-6.312;2022-08-19T03:58:46;14.27;;;3.10;;
64342;SDS011;50675;53.530;-6.312;2022-08-19T04:01:13;12.95;;;3.72;;
64342;SDS011;50675;53.530;-6.312;2022-08-19T04:03:41;14.70;;;3.33;;
64342;SDS011;50675;53.530;-6.312;2022-08-19T04:06:14;15.35;;;3.13;;
64342;SDS011;50675;53.530;-6.312;2022-08-19T04:08:46;16.40;;;3.17;;
64342;SDS011;50675;53.530;-6.312;2022-08-19T04:11:14;17.35;;;4.22;;
64342;SDS011;50675;53.530;-6.312;2022-08-19T04:13:42;19.27;;;3.47;;
64342;SDS011;50675;53.530;-6.312;2022-08-19T04:16:11;12.43;;;3.63;;
64342;SDS011;50675;53.530;-6.312;2022-08-19T04:18:37;11.77;;;3.28;;
64342;SDS011;50675;53.530;-6.312;2022-08-19T04:21:04;7.80;;;3.30;;
64342;SDS011;50675;53.530;-6.312;2022-08-19T04:23:30;11.85;;;3.65;;
64342;SDS011;50675;53.530;-6.312;2022-08-19T04:25:56;12.77;;;3.45;;
64342;SDS011;50675;53.530;-6.312;2022-08-19T04:28:22;11.88;;;2.63;;
64342;SDS011;50675;53.530;-6.312;2022-08-19T04:30:49;13.70;;;2.80;;
64342;SDS011;50675;53.530;-6.312;2022-08-19T04:33:19;13.75;;;3.15;;
64342;SDS011;50675;53.530;-6.312;2022-08-19T04:35:48;11.88;;;3.08;;
64342;SDS011;50675;53.530;-6.312;2022-08-19T04:38:16;14.93;;;3.00;;
64342;SDS011;50675;53.530;-6.312;2022-08-19T04:40:44;13.00;;;3.20;;
64342;SDS011;50675;53.530;-6.312;2022-08-19T04:43:32;13.82;;;4.30;;
64342;SDS011;50675;53.530;-6.312;2022-08-19T04:45:58;14.10;;;2.80;;
64342;SDS011;50675;53.530;-6.312;2022-08-19T04:48:30;13.85;;;2.75;;
64342;SDS011;50675;53.530;-6.312;2022-08-19T04:50:57;12.50;;;2.75;;
64342;SDS011;50675;53.530;-6.312;2022-08-19T04:53:28;12.70;;;3.20;;
64342;SDS011;50675;53.530;-6.312;2022-08-19T04:55:56;11.48;;;3.13;;
64342;SDS011;50675;53.530;-6.312;2022-08-19T04:58:24;11.15;;;2.95;;
64342;SDS011;50675;53.530;-6.312;2022-08-19T05:00:51;13.32;;;2.75;;
64342;SDS011;50675;53.530;-6.312;2022-08-19T05:03:17;11.95;;;3.00;;
64342;SDS011;50675;53.530;-6.312;2022-08-19T05:05:43;11.07;;;2.85;;
64342;SDS011;50675;53.530;-6.312;2022-08-19T05:08:11;10.52;;;2.80;;
64342;SDS011;50675;53.530;-6.312;2022-08-19T05:10:38;14.60;;;3.38;;
64342;SDS011;50675;53.530;-6.312;2022-08-19T05:13:05;13.20;;;3.03;;
64342;SDS011;50675;53.530;-6.312;2022-08-19T05:15:30;19.25;;;3.58;;
64342;SDS011;50675;53.530;-6.312;2022-08-19T05:17:56;12.77;;;2.58;;
64342;SDS011;50675;53.530;-6.312;2022-08-19T05:20:41;9.35;;;2.70;;
64342;SDS011;50675;53.530;-6.312;2022-08-19T05:23:26;10.00;;;2.80;;
64342;SDS011;50675;53.530;-6.312;2022-08-19T05:25:51;9.15;;;2.50;;
64342;SDS011;50675;53.530;-6.312;2022-08-19T05:28:17;13.65;;;2.88;;
64342;SDS011;50675;53.530;-6.312;2022-08-19T05:30:44;12.98;;;2.55;;
64342;SDS011;50675;53.530;-6.312;2022-08-19T05:33:11;13.00;;;2.60;;
64342;SDS011;50675;53.530;-6.312;2022-08-19T05:35:38;10.10;;;2.58;;
64342;SDS011;50675;53.530;-6.312;2022-08-19T05:38:05;11.88;;;2.88;;
64342;SDS011;50675;53.530;-6.312;2022-08-19T05:40:36;10.43;;;2.60;;
64342;SDS011;50675;53.530;-6.312;2022-08-19T05:43:04;8.93;;;2.38;;
64342;SDS011;50675;53.530;-6.312;2022-08-19T05:45:31;8.20;;;2.35;;
64342;SDS011;50675;53.530;-6.312;2022-08-19T05:47:58;11.63;;;3.17;;
64342;SDS011;50675;53.530;-6.312;2022-08-19T05:50:24;12.07;;;2.78;;
64342;SDS011;50675;53.530;-6.312;2022-08-19T05:52:51;10.77;;;2.88;;
64342;SDS011;50675;53.530;-6.312;2022-08-19T05:55:18;12.18;;;2.50;;
64342;SDS011;50675;53.530;-6.312;2022-08-19T05:57:46;10.48;;;2.35;;
64342;SDS011;50675;53.530;-6.312;2022-08-19T06:00:12;10.30;;;2.75;;
64342;SDS011;50675;53.530;-6.312;2022-08-19T06:02:39;15.45;;;2.65;;
64342;SDS011;50675;53.530;-6.312;2022-08-19T06:05:06;11.15;;;2.40;;
64342;SDS011;50675;53.530;-6.312;2022-08-19T06:07:35;14.18;;;2.80;;
64342;SDS011;50675;53.530;-6.312;2022-08-19T06:10:02;7.13;;;2.30;;
64342;SDS011;50675;53.530;-6.312;2022-08-19T06:12:30;8.77;;;2.40;;
64342;SDS011;50675;53.530;-6.312;2022-08-19T06:15:00;8.65;;;2.13;;
64342;SDS011;50675;53.530;-6.312;2022-08-19T06:17:27;5.20;;;2.20;;
64342;SDS011;50675;53.530;-6.312;2022-08-19T06:19:55;14.00;;;3.97;;
64342;SDS011;50675;53.530;-6.312;2022-08-19T06:22:21;8.75;;;2.58;;
64342;SDS011;50675;53.530;-6.312;2022-08-19T06:24:47;7.72;;;2.40;;
64342;SDS011;50675;53.530;-6.312;2022-08-19T06:27:13;7.57;;;2.28;;
64342;SDS011;50675;53.530;-6.312;2022-08-19T06:29:38;9.73;;;2.53;;
64342;SDS011;50675;53.530;-6.312;2022-08-19T06:32:04;13.63;;;2.88;;
64342;SDS011;50675;53.530;-6.312;2022-08-19T06:34:31;13.60;;;3.13;;
64342;SDS011;50675;53.530;-6.312;2022-08-19T06:36:59;10.57;;;2.72;;
64342;SDS011;50675;53.530;-6.312;2022-08-19T06:39:27;9.15;;;2.08;;
64342;SDS011;50675;53.530;-6.312;2022-08-19T06:41:59;6.88;;;2.40;;
64342;SDS011;50675;53.530;-6.312;2022-08-19T06:44:28;8.82;;;2.08;;
64342;SDS011;50675;53.530;-6.312;2022-08-19T06:47:00;8.55;;;2.83;;
64342;SDS011;50675;53.530;-6.312;2022-08-19T06:49:27;9.00;;;2.30;;
64342;SDS011;50675;53.530;-6.312;2022-08-19T06:51:56;6.65;;;1.90;;
64342;SDS011;50675;53.530;-6.312;2022-08-19T06:54:22;9.90;;;2.20;;
64342;SDS011;50675;53.530;-6.312;2022-08-19T06:56:48;8.75;;;2.72;;
64342;SDS011;50675;53.530;-6.312;2022-08-19T06:59:15;6.68;;;1.88;;
64342;SDS011;50675;53.530;-6.312;2022-08-19T07:01:47;9.55;;;2.80;;
64342;SDS011;50675;53.530;-6.312;2022-08-19T07:04:16;5.63;;;1.77;;
64342;SDS011;50675;53.530;-6.312;2022-08-19T07:06:44;5.97;;;1.50;;
64342;SDS011;50675;53.530;-6.312;2022-08-19T07:09:11;6.68;;;1.73;;
64342;SDS011;50675;53.530;-6.312;2022-08-19T07:11:43;7.15;;;2.00;;
64342;SDS011;50675;53.530;-6.312;2022-08-19T07:14:10;5.32;;;1.45;;
64342;SDS011;50675;53.530;-6.312;2022-08-19T07:16:36;9.30;;;2.13;;
64342;SDS011;50675;53.530;-6.312;2022-08-19T07:19:01;7.85;;;1.92;;
64342;SDS011;50675;53.530;-6.312;2022-08-19T07:21:27;8.32;;;1.90;;
64342;SDS011;50675;53.530;-6.312;2022-08-19T07:23:54;7.22;;;1.83;;
64342;SDS011;50675;53.530;-6.312;2022-08-19T07:26:26;9.00;;;1.92;;
64342;SDS011;50675;53.530;-6.312;2022-08-19T07:28:54;8.07;;;1.95;;
64342;SDS011;50675;53.530;-6.312;2022-08-19T07:31:21;7.13;;;2.28;;
64342;SDS011;50675;53.530;-6.312;2022-08-19T07:33:49;4.18;;;1.23;;
64342;SDS011;50675;53.530;-6.312;2022-08-19T07:36:17;3.80;;;1.48;;
64342;SDS011;50675;53.530;-6.312;2022-08-19T07:38:47;5.63;;;1.30;;
64342;SDS011;50675;53.530;-6.312;2022-08-19T07:41:15;5.05;;;1.35;;
64342;SDS011;50675;53.530;-6.312;2022-08-19T07:43:44;4.50;;;1.45;;
64342;SDS011;50675;53.530;-6.312;2022-08-19T07:46:11;7.80;;;1.50;;
64342;SDS011;50675;53.530;-6.312;2022-08-19T07:48:39;8.27;;;1.60;;
64342;SDS011;50675;53.530;-6.312;2022-08-19T07:51:07;4.93;;;1.45;;
64342;SDS011;50675;53.530;-6.312;2022-08-19T07:53:34;7.57;;;2.10;;
64342;SDS011;50675;53.530;-6.312;2022-08-19T07:56:02;6.20;;;1.55;;
64342;SDS011;50675;53.530;-6.312;2022-08-19T07:58:36;4.10;;;1.35;;
64342;SDS011;50675;53.530;-6.312;2022-08-19T08:01:07;4.88;;;1.55;;
64342;SDS011;50675;53.530;-6.312;2022-08-19T08:03:36;5.45;;;1.48;;
64342;SDS011;50675;53.530;-6.312;2022-08-19T08:06:20;12.00;;;2.30;;
64342;SDS011;50675;53.530;-6.312;2022-08-19T08:09:06;4.70;;;1.48;;
64342;SDS011;50675;53.530;-6.312;2022-08-19T08:11:42;4.32;;;1.25;;
64342;SDS011;50675;53.530;-6.312;2022-08-19T08:14:14;4.00;;;1.40;;
64342;SDS011;50675;53.530;-6.312;2022-08-19T08:16:43;4.57;;;1.33;;
64342;SDS011;50675;53.530;-6.312;2022-08-19T08:19:11;8.93;;;1.90;;
64342;SDS011;50675;53.530;-6.312;2022-08-19T08:21:40;6.95;;;1.63;;
64342;SDS011;50675;53.530;-6.312;2022-08-19T08:24:06;9.57;;;1.92;;
64342;SDS011;50675;53.530;-6.312;2022-08-19T08:26:32;4.88;;;1.50;;
64342;SDS011;50675;53.530;-6.312;2022-08-19T08:28:57;5.65;;;1.80;;
64342;SDS011;50675;53.530;-6.312;2022-08-19T08:31:23;5.47;;;1.40;;
64342;SDS011;50675;53.530;-6.312;2022-08-19T08:33:49;5.57;;;1.80;;
64342;SDS011;50675;53.530;-6.312;2022-08-19T08:36:15;6.88;;;1.48;;
64342;SDS011;50675;53.530;-6.312;2022-08-19T08:38:42;5.03;;;1.40;;
64342;SDS011;50675;53.530;-6.312;2022-08-19T08:43:59;8.35;;;1.85;;
64342;SDS011;50675;53.530;-6.312;2022-08-19T08:46:51;7.57;;;1.40;;
64342;SDS011;50675;53.530;-6.312;2022-08-19T08:52:22;6.03;;;1.50;;
64342;SDS011;50675;53.530;-6.312;2022-08-19T08:54:52;11.65;;;2.13;;
64342;SDS011;50675;53.530;-6.312;2022-08-19T08:57:27;8.23;;;2.05;;
64342;SDS011;50675;53.530;-6.312;2022-08-19T09:00:00;5.45;;;1.60;;
64342;SDS011;50675;53.530;-6.312;2022-08-19T09:02:30;7.80;;;2.03;;
64342;SDS011;50675;53.530;-6.312;2022-08-19T09:04:56;6.00;;;1.67;;
64342;SDS011;50675;53.530;-6.312;2022-08-19T09:07:43;8.93;;;2.20;;
64342;SDS011;50675;53.530;-6.312;2022-08-19T09:10:31;9.93;;;2.28;;
64342;SDS011;50675;53.530;-6.312;2022-08-19T09:16:06;6.35;;;1.60;;
64342;SDS011;50675;53.530;-6.312;2022-08-19T09:18:50;8.45;;;2.20;;
64342;SDS011;50675;53.530;-6.312;2022-08-19T09:21:45;5.70;;;1.92;;
64342;SDS011;50675;53.530;-6.312;2022-08-19T09:24:23;5.65;;;1.80;;
64342;SDS011;50675;53.530;-6.312;2022-08-19T09:27:32;6.47;;;1.40;;
64342;SDS011;50675;53.530;-6.312;2022-08-19T09:29:58;7.97;;;1.60;;
64342;SDS011;50675;53.530;-6.312;2022-08-19T09:32:26;2.85;;;1.20;;
64342;SDS011;50675;53.530;-6.312;2022-08-19T09:34:52;6.30;;;1.30;;
64342;SDS011;50675;53.530;-6.312;2022-08-19T09:37:23;3.72;;;1.02;;
64342;SDS011;50675;53.530;-6.312;2022-08-19T09:39:52;4.43;;;1.55;;
64342;SDS011;50675;53.530;-6.312;2022-08-19T09:44:50;5.55;;;1.30;;
64342;SDS011;50675;53.530;-6.312;2022-08-19T09:47:16;3.90;;;1.30;;
64342;SDS011;50675;53.530;-6.312;2022-08-19T09:49:42;5.07;;;1.20;;
64342;SDS011;50675;53.530;-6.312;2022-08-19T09:52:08;12.32;;;3.03;;
64342;SDS011;50675;53.530;-6.312;2022-08-19T09:58:35;4.70;;;1.80;;
64342;SDS011;50675;53.530;-6.312;2022-08-19T10:01:04;5.75;;;1.45;;
64342;SDS011;50675;53.530;-6.312;2022-08-19T10:03:32;6.25;;;1.77;;
64342;SDS011;50675;53.530;-6.312;2022-08-19T10:06:04;5.63;;;1.90;;
64342;SDS011;50675;53.530;-6.312;2022-08-19T10:08:35;7.38;;;1.95;;
64342;SDS011;50675;53.530;-6.312;2022-08-19T10:11:02;5.82;;;1.88;;
64342;SDS011;50675;53.530;-6.312;2022-08-19T10:13:30;6.25;;;1.80;;
64342;SDS011;50675;53.530;-6.312;2022-08-19T10:16:02;8.07;;;1.95;;
64342;SDS011;50675;53.530;-6.312;2022-08-19T10:18:31;5.70;;;2.00;;
64342;SDS011;50675;53.530;-6.312;2022-08-19T10:21:10;3.05;;;1.40;;
64342;SDS011;50675;53.530;-6.312;2022-08-19T10:23:38;4.95;;;1.73;;
64342;SDS011;50675;53.530;-6.312;2022-08-19T10:26:05;6.97;;;1.55;;
64342;SDS011;50675;53.530;-6.312;2022-08-19T10:28:35;4.00;;;1.80;;
64342;SDS011;50675;53.530;-6.312;2022-08-19T10:31:08;6.07;;;1.80;;
64342;SDS011;50675;53.530;-6.312;2022-08-19T10:33:39;5.70;;;1.60;;
64342;SDS011;50675;53.530;-6.312;2022-08-19T10:36:06;5.18;;;1.83;;
64342;SDS011;50675;53.530;-6.312;2022-08-19T10:38:35;6.70;;;2.10;;
64342;SDS011;50675;53.530;-6.312;2022-08-19T10:41:08;5.28;;;1.90;;
64342;SDS011;50675;53.530;-6.312;2022-08-19T10:43:35;6.18;;;1.55;;
64342;SDS011;50675;53.530;-6.312;2022-08-19T10:46:04;6.25;;;1.60;;
64342;SDS011;50675;53.530;-6.312;2022-08-19T10:48:31;5.10;;;1.55;;
64342;SDS011;50675;53.530;-6.312;2022-08-19T10:50:58;6.28;;;1.83;;
64342;SDS011;50675;53.530;-6.312;2022-08-19T10:53:43;8.55;;;1.75;;
64342;SDS011;50675;53.530;-6.312;2022-08-19T10:56:08;4.85;;;1.52;;
64342;SDS011;50675;53.530;-6.312;2022-08-19T10:58:57;3.60;;;1.40;;
64342;SDS011;50675;53.530;-6.312;2022-08-19T11:01:24;6.47;;;1.45;;
64342;SDS011;50675;53.530;-6.312;2022-08-19T11:03:55;5.32;;;1.45;;
64342;SDS011;50675;53.530;-6.312;2022-08-19T11:06:22;7.78;;;1.75;;
64342;SDS011;50675;53.530;-6.312;2022-08-19T11:08:50;5.43;;;1.75;;
64342;SDS011;50675;53.530;-6.312;2022-08-19T11:11:17;7.82;;;1.92;;
64342;SDS011;50675;53.530;-6.312;2022-08-19T11:13:43;7.45;;;1.70;;
64342;SDS011;50675;53.530;-6.312;2022-08-19T11:16:11;5.00;;;2.08;;
64342;SDS011;50675;53.530;-6.312;2022-08-19T11:18:54;10.13;;;2.28;;
64342;SDS011;50675;53.530;-6.312;2022-08-19T11:23:56;6.57;;;2.03;;
64342;SDS011;50675;53.530;-6.312;2022-08-19T11:26:24;7.70;;;2.45;;
64342;SDS011;50675;53.530;-6.312;2022-08-19T11:28:50;4.95;;;2.08;;
64342;SDS011;50675;53.530;-6.312;2022-08-19T11:31:20;7.35;;;2.17;;
64342;SDS011;50675;53.530;-6.312;2022-08-19T11:33:47;8.73;;;2.00;;
64342;SDS011;50675;53.530;-6.312;2022-08-19T11:36:16;4.90;;;2.20;;
64342;SDS011;50675;53.530;-6.312;2022-08-19T11:38:43;7.90;;;2.60;;
64342;SDS011;50675;53.530;-6.312;2022-08-19T11:41:10;7.97;;;2.17;;
64342;SDS011;50675;53.530;-6.312;2022-08-19T11:43:36;5.95;;;2.38;;
64342;SDS011;50675;53.530;-6.312;2022-08-19T11:46:06;9.70;;;2.15;;
64342;SDS011;50675;53.530;-6.312;2022-08-19T11:48:35;10.88;;;3.20;;
64342;SDS011;50675;53.530;-6.312;2022-08-19T11:51:03;7.60;;;2.20;;
64342;SDS011;50675;53.530;-6.312;2022-08-19T11:53:32;7.65;;;2.72;;
64342;SDS011;50675;53.530;-6.312;2022-08-19T11:55:59;9.85;;;2.45;;
64342;SDS011;50675;53.530;-6.312;2022-08-19T11:58:25;8.32;;;2.35;;
64342;SDS011;50675;53.530;-6.312;2022-08-19T12:00:51;10.00;;;2.50;;
64342;SDS011;50675;53.530;-6.312;2022-08-19T12:03:18;5.00;;;1.88;;
64342;SDS011;50675;53.530;-6.312;2022-08-19T12:05:45;11.43;;;2.60;;
64342;SDS011;50675;53.530;-6.312;2022-08-19T12:08:11;8.85;;;2.55;;
64342;SDS011;50675;53.530;-6.312;2022-08-19T12:10:38;21.17;;;3.88;;
64342;SDS011;50675;53.530;-6.312;2022-08-19T12:13:05;8.77;;;2.45;;
64342;SDS011;50675;53.530;-6.312;2022-08-19T12:15:35;9.35;;;2.90;;
64342;SDS011;50675;53.530;-6.312;2022-08-19T12:18:02;9.05;;;2.60;;
64342;SDS011;50675;53.530;-6.312;2022-08-19T12:20:29;8.65;;;2.58;;
64342;SDS011;50675;53.530;-6.312;2022-08-19T12:22:54;8.68;;;2.55;;
64342;SDS011;50675;53.530;-6.312;2022-08-19T12:25:20;6.40;;;2.25;;
64342;SDS011;50675;53.530;-6.312;2022-08-19T12:27:46;5.18;;;2.15;;
64342;SDS011;50675;53.530;-6.312;2022-08-19T12:30:12;7.50;;;2.30;;
64342;SDS011;50675;53.530;-6.312;2022-08-19T12:32:39;5.93;;;1.98;;
64342;SDS011;50675;53.530;-6.312;2022-08-19T12:35:06;10.90;;;2.58;;
64342;SDS011;50675;53.530;-6.312;2022-08-19T12:37:33;8.23;;;2.40;;
64342;SDS011;50675;53.530;-6.312;2022-08-19T12:40:08;6.35;;;2.42;;
64342;SDS011;50675;53.530;-6.312;2022-08-19T12:43:08;8.32;;;2.50;;
64342;SDS011;50675;53.530;-6.312;2022-08-19T12:45:51;8.65;;;2.53;;
64342;SDS011;50675;53.530;-6.312;2022-08-19T12:48:21;10.00;;;2.70;;
64342;SDS011;50675;53.530;-6.312;2022-08-19T12:50:47;9.73;;;2.50;;
64342;SDS011;50675;53.530;-6.312;2022-08-19T12:53:36;6.53;;;2.63;;
64342;SDS011;50675;53.530;-6.312;2022-08-19T12:56:22;7.30;;;2.70;;
64342;SDS011;50675;53.530;-6.312;2022-08-19T13:10:35;8.25;;;2.30;;
64342;SDS011;50675;53.530;-6.312;2022-08-19T13:13:02;9.02;;;2.55;;
64342;SDS011;50675;53.530;-6.312;2022-08-19T13:15:35;8.63;;;2.50;;
64342;SDS011;50675;53.530;-6.312;2022-08-19T13:18:55;8.23;;;2.20;;
64342;SDS011;50675;53.530;-6.312;2022-08-19T13:25:59;6.13;;;2.28;;
64342;SDS011;50675;53.530;-6.312;2022-08-19T13:28:42;7.88;;;2.85;;
64342;SDS011;50675;53.530;-6.312;2022-08-19T13:32:07;5.40;;;2.35;;
64342;SDS011;50675;53.530;-6.312;2022-08-19T13:34:51;7.28;;;2.72;;
64342;SDS011;50675;53.530;-6.312;2022-08-19T13:37:17;8.13;;;2.50;;
64342;SDS011;50675;53.530;-6.312;2022-08-19T13:40:17;7.10;;;2.50;;
64342;SDS011;50675;53.530;-6.312;2022-08-19T13:42:45;8.43;;;2.42;;
64342;SDS011;50675;53.530;-6.312;2022-08-19T13:45:16;5.55;;;2.20;;
64342;SDS011;50675;53.530;-6.312;2022-08-19T13:47:47;9.90;;;2.55;;
64342;SDS011;50675;53.530;-6.312;2022-08-19T13:50:28;8.77;;;3.08;;
64342;SDS011;50675;53.530;-6.312;2022-08-19T13:53:30;8.05;;;2.85;;
64342;SDS011;50675;53.530;-6.312;2022-08-19T13:56:28;6.85;;;2.30;;
64342;SDS011;50675;53.530;-6.312;2022-08-19T13:58:59;6.32;;;2.30;;
64342;SDS011;50675;53.530;-6.312;2022-08-19T14:05:45;10.18;;;3.30;;
64342;SDS011;50675;53.530;-6.312;2022-08-19T14:08:21;8.63;;;2.72;;
64342;SDS011;50675;53.530;-6.312;2022-08-19T14:10:59;12.85;;;3.55;;
64342;SDS011;50675;53.530;-6.312;2022-08-19T14:14:01;9.90;;;3.00;;
64342;SDS011;50675;53.530;-6.312;2022-08-19T14:16:26;10.52;;;2.83;;
64342;SDS011;50675;53.530;-6.312;2022-08-19T14:18:52;9.80;;;2.88;;
64342;SDS011;50675;53.530;-6.312;2022-08-19T14:21:22;7.97;;;2.50;;
64342;SDS011;50675;53.530;-6.312;2022-08-19T14:23:50;9.35;;;3.22;;
64342;SDS011;50675;53.530;-6.312;2022-08-19T14:26:17;7.80;;;2.03;;
64342;SDS011;50675;53.530;-6.312;2022-08-19T14:28:44;6.90;;;2.20;;
64342;SDS011;50675;53.530;-6.312;2022-08-19T14:31:11;5.65;;;1.80;;
64342;SDS011;50675;53.530;-6.312;2022-08-19T14:33:38;5.75;;;1.60;;
64342;SDS011;50675;53.530;-6.312;2022-08-19T14:36:04;4.43;;;1.90;;
64342;SDS011;50675;53.530;-6.312;2022-08-19T14:38:30;9.93;;;2.55;;
64342;SDS011;50675;53.530;-6.312;2022-08-19T14:43:43;6.72;;;1.55;;
64342;SDS011;50675;53.530;-6.312;2022-08-19T14:46:18;7.47;;;1.85;;
64342;SDS011;50675;53.530;-6.312;2022-08-19T14:48:46;8.25;;;1.80;;
64342;SDS011;50675;53.530;-6.312;2022-08-19T14:51:12;5.35;;;1.70;;
64342;SDS011;50675;53.530;-6.312;2022-08-19T14:53:39;5.13;;;1.63;;
64342;SDS011;50675;53.530;-6.312;2022-08-19T14:56:09;7.78;;;1.80;;
64342;SDS011;50675;53.530;-6.312;2022-08-19T14:58:39;4.45;;;1.50;;
64342;SDS011;50675;53.530;-6.312;2022-08-19T15:01:06;3.97;;;1.27;;
64342;SDS011;50675;53.530;-6.312;2022-08-19T15:03:33;6.22;;;1.10;;
64342;SDS011;50675;53.530;-6.312;2022-08-19T15:05:59;5.88;;;1.63;;
64342;SDS011;50675;53.530;-6.312;2022-08-19T15:08:26;5.30;;;1.23;;
64342;SDS011;50675;53.530;-6.312;2022-08-19T15:10:54;4.90;;;1.27;;
64342;SDS011;50675;53.530;-6.312;2022-08-19T15:13:21;2.97;;;1.27;;
64342;SDS011;50675;53.530;-6.312;2022-08-19T15:15:47;6.60;;;1.70;;
64342;SDS011;50675;53.530;-6.312;2022-08-19T15:18:13;5.88;;;1.63;;
64342;SDS011;50675;53.530;-6.312;2022-08-19T15:20:39;5.65;;;1.50;;
64342;SDS011;50675;53.530;-6.312;2022-08-19T15:23:05;5.55;;;1.67;;
64342;SDS011;50675;53.530;-6.312;2022-08-19T15:25:31;4.32;;;1.40;;